Time,TemperatureF,DewpointF,PressureIn,WindDirection,WindDirectionDegrees,WindSpeedMPH,WindSpeedGustMPH,Humidity,HourlyPrecipIn,Conditions,Clouds,dailyrainin,SoftwareType,DateUTC
2013-11-01 00:03:00,70.0,64.0,29.73,NW,317,2.0,10.0,80,0.00,,,0.00,,2013-11-01 04:03:00,
2013-11-01 00:14:00,70.0,64.0,29.73,NW,317,2.0,10.0,80,0.00,,,0.00,,2013-11-01 04:14:00,
2013-11-01 02:22:00,65.0,65.0,29.71,East,97,0.0,6.0,100,0.07,,,0.12,,2013-11-01 06:22:00,
2013-11-01 02:52:00,65.0,65.0,29.71,SE,139,1.0,6.0,100,0.15,,,0.22,,2013-11-01 06:52:00,
2013-11-01 03:12:00,65.0,65.0,29.70,ENE,75,1.0,8.0,100,0.14,,,0.23,,2013-11-01 07:12:00,
2013-11-01 03:22:00,65.0,65.0,29.70,ENE,75,1.0,8.0,100,0.14,,,0.23,,2013-11-01 07:22:00,
2013-11-01 03:32:00,65.0,65.0,29.70,ENE,75,1.0,8.0,100,0.14,,,0.23,,2013-11-01 07:32:00,
2013-11-01 05:22:00,64.0,64.0,29.73,WSW,243,0.0,0.0,100,0.00,,,0.33,,2013-11-01 09:22:00,
2013-11-01 05:43:00,63.0,63.0,29.74,WSW,243,0.0,0.0,100,0.00,,,0.33,,2013-11-01 09:43:00,
2013-11-01 05:53:00,63.0,63.0,29.74,WSW,243,0.0,0.0,100,0.00,,,0.33,,2013-11-01 09:53:00,
2013-11-01 06:03:00,63.0,63.0,29.74,WSW,243,0.0,0.0,100,0.00,,,0.33,,2013-11-01 10:03:00,
2013-11-01 06:13:00,63.0,63.0,29.74,WSW,243,0.0,0.0,100,0.00,,,0.33,,2013-11-01 10:13:00,
2013-11-01 06:53:00,61.0,61.0,29.78,WSW,243,0.0,0.0,100,0.00,,,0.33,,2013-11-01 10:53:00,
2013-11-01 07:03:00,61.0,61.0,29.78,WSW,243,0.0,0.0,100,0.00,,,0.33,,2013-11-01 11:03:00,
2013-11-01 07:22:00,60.0,60.0,29.79,WSW,243,0.0,0.0,100,0.00,,,0.33,,2013-11-01 11:22:00,
2013-11-01 07:33:00,60.0,60.0,29.79,WSW,243,0.0,0.0,100,0.00,,,0.33,,2013-11-01 11:33:00,
2013-11-01 07:52:00,60.0,60.0,29.79,WSW,243,0.0,0.0,100,0.00,,,0.33,,2013-11-01 11:52:00,
2013-11-01 08:52:00,58.0,58.0,29.81,WSW,243,0.0,0.0,100,0.00,,,0.33,,2013-11-01 12:52:00,
2013-11-01 09:12:00,58.0,58.0,29.81,WSW,243,0.0,0.0,100,0.00,,,0.33,,2013-11-01 13:12:00,
2013-11-01 09:22:00,58.0,58.0,29.81,WSW,243,0.0,0.0,100,0.00,,,0.33,,2013-11-01 13:22:00,
2013-11-01 12:12:00,67.0,56.0,29.82,SE,127,1.0,6.0,69,0.00,,,0.33,,2013-11-01 16:12:00,
2013-11-01 12:23:00,67.0,56.0,29.82,SE,127,1.0,6.0,69,0.00,,,0.33,,2013-11-01 16:23:00,
2013-11-01 12:32:00,67.0,56.0,29.82,SE,127,1.0,6.0,69,0.00,,,0.33,,2013-11-01 16:32:00,
2013-11-01 13:52:00,69.0,54.0,29.78,NW,304,1.0,6.0,59,0.00,,,0.33,,2013-11-01 17:52:00,
2013-11-01 14:12:00,70.0,53.0,29.78,WSW,253,0.0,5.0,54,0.00,,,0.33,,2013-11-01 18:12:00,
2013-11-01 14:22:00,70.0,53.0,29.78,WSW,253,0.0,5.0,54,0.00,,,0.33,,2013-11-01 18:22:00,
2013-11-01 14:42:00,71.0,51.0,29.76,SE,136,1.0,7.0,49,0.00,,,0.33,,2013-11-01 18:42:00,
2013-11-01 14:52:00,71.0,51.0,29.76,SE,136,1.0,7.0,49,0.00,,,0.33,,2013-11-01 18:52:00,
2013-11-01 15:02:00,71.0,51.0,29.76,SE,136,1.0,7.0,49,0.00,,,0.33,,2013-11-01 19:02:00,
2013-11-01 15:12:00,71.0,51.0,29.76,SE,136,1.0,7.0,49,0.00,,,0.33,,2013-11-01 19:12:00,
2013-11-01 16:12:00,71.0,50.0,29.74,North,6,0.0,7.0,48,0.00,,,0.33,,2013-11-01 20:12:00,
2013-11-01 16:22:00,71.0,50.0,29.74,North,6,0.0,7.0,48,0.00,,,0.33,,2013-11-01 20:22:00,
2013-11-01 16:32:00,71.0,50.0,29.74,North,6,0.0,7.0,48,0.00,,,0.33,,2013-11-01 20:32:00,
2013-11-01 17:12:00,70.0,49.0,29.73,NE,45,1.0,6.0,47,0.00,,,0.33,,2013-11-01 21:12:00,
2013-11-01 17:22:00,70.0,49.0,29.73,NE,45,1.0,6.0,47,0.00,,,0.33,,2013-11-01 21:22:00,
2013-11-01 17:44:00,70.0,50.0,29.73,SSE,148,0.0,6.0,49,0.00,,,0.33,,2013-11-01 21:44:00,
2013-11-01 17:55:00,70.0,50.0,29.73,SSE,148,0.0,6.0,49,0.00,,,0.33,,2013-11-01 21:55:00,
2013-11-01 18:24:00,67.0,49.0,29.75,ENE,59,0.0,0.0,52,0.00,,,0.33,,2013-11-01 22:24:00,
2013-11-01 18:34:00,67.0,49.0,29.75,ENE,59,0.0,0.0,52,0.00,,,0.33,,2013-11-01 22:34:00,
2013-11-01 18:53:00,65.0,52.0,29.75,WSW,248,0.0,0.0,62,0.00,,,0.33,,2013-11-01 22:53:00,
2013-11-01 19:12:00,62.0,52.0,29.77,WSW,248,0.0,0.0,70,0.00,,,0.33,,2013-11-01 23:12:00,
2013-11-01 19:22:00,62.0,52.0,29.77,WSW,248,0.0,0.0,70,0.00,,,0.33,,2013-11-01 23:22:00,
2013-11-01 19:34:00,62.0,52.0,29.77,WSW,248,0.0,0.0,70,0.00,,,0.33,,2013-11-01 23:34:00,
2013-11-01 19:42:00,62.0,52.0,29.77,WSW,248,0.0,0.0,70,0.00,,,0.33,,2013-11-01 23:42:00,
2013-11-01 20:52:00,57.0,52.0,29.80,WSW,248,0.0,0.0,84,0.00,,,0.33,,2013-11-02 00:52:00,
2013-11-01 21:02:00,57.0,52.0,29.80,WSW,248,0.0,0.0,84,0.00,,,0.33,,2013-11-02 01:02:00,
2013-11-01 21:12:00,57.0,52.0,29.80,WSW,248,0.0,0.0,84,0.00,,,0.33,,2013-11-02 01:12:00,
2013-11-01 21:22:00,57.0,52.0,29.80,WSW,248,0.0,0.0,84,0.00,,,0.33,,2013-11-02 01:22:00,
2013-11-01 21:52:00,55.0,52.0,29.81,WSW,248,0.0,0.0,91,0.00,,,0.33,,2013-11-02 01:52:00,
2013-11-01 22:22:00,54.0,52.0,29.81,WSW,248,0.0,0.0,92,0.00,,,0.33,,2013-11-02 02:22:00,
2013-11-01 22:32:00,54.0,52.0,29.81,WSW,248,0.0,0.0,92,0.00,,,0.33,,2013-11-02 02:32:00,
2013-11-01 22:52:00,54.0,52.0,29.81,WSW,248,0.0,0.0,92,0.00,,,0.33,,2013-11-02 02:52:00,